Аэропорт: Кадала. Чита

ICAO: UIAA

METAR:
2019-11-21 09:00:00
UIAA 210900Z 09003MPS 9999 SCT043CB M10/M17 Q1006 R29/70D NOSIG RMK QFE697/0929
METAR:
2019-11-21 08:00:00
TAF UIAA 210800Z 2109/2209 10003G08MPS 9999 SCT040CB TEMPO 2112/2124 3100 -SHSN BR BKN014CB TEMPO 2200/2203 29005G12MPS